sensor_id;sensor_type;location;lat;lon;timestamp;P1;durP1;ratioP1;P2;durP2;ratioP2
37365;SDS011;23239;51.504;7.456;2023-07-29T00:00:00;4.4;;;3.6;;
37365;SDS011;23239;51.504;7.456;2023-07-29T00:01:00;4.4;;;3.6;;
37365;SDS011;23239;51.504;7.456;2023-07-29T00:02:00;3.7;;;3.4;;
37365;SDS011;23239;51.504;7.456;2023-07-29T00:03:00;3.7;;;3.4;;
37365;SDS011;23239;51.504;7.456;2023-07-29T00:04:00;3.7;;;3.4;;
37365;SDS011;23239;51.504;7.456;2023-07-29T00:05:00;3.7;;;3.4;;
37365;SDS011;23239;51.504;7.456;2023-07-29T00:06:00;3.7;;;3.4;;
37365;SDS011;23239;51.504;7.456;2023-07-29T00:07:00;3.8;;;3.5;;
37365;SDS011;23239;51.504;7.456;2023-07-29T00:08:00;3.8;;;3.5;;
37365;SDS011;23239;51.504;7.456;2023-07-29T00:09:00;3.8;;;3.5;;
37365;SDS011;23239;51.504;7.456;2023-07-29T00:10:00;3.8;;;3.5;;
37365;SDS011;23239;51.504;7.456;2023-07-29T00:11:00;3.8;;;3.5;;
37365;SDS011;23239;51.504;7.456;2023-07-29T00:12:00;4.5;;;3.5;;
37365;SDS011;23239;51.504;7.456;2023-07-29T00:13:00;4.5;;;3.5;;
37365;SDS011;23239;51.504;7.456;2023-07-29T00:14:00;4.5;;;3.5;;
37365;SDS011;23239;51.504;7.456;2023-07-29T00:15:00;4.5;;;3.5;;
37365;SDS011;23239;51.504;7.456;2023-07-29T00:16:00;4.5;;;3.5;;
37365;SDS011;23239;51.504;7.456;2023-07-29T00:17:00;3.3;;;3.0;;
37365;SDS011;23239;51.504;7.456;2023-07-29T00:18:00;3.3;;;3.0;;
37365;SDS011;23239;51.504;7.456;2023-07-29T00:19:00;3.3;;;3.0;;
37365;SDS011;23239;51.504;7.456;2023-07-29T00:20:00;3.3;;;3.0;;
37365;SDS011;23239;51.504;7.456;2023-07-29T00:21:00;3.3;;;3.0;;
37365;SDS011;23239;51.504;7.456;2023-07-29T00:22:00;3.4;;;3.0;;
37365;SDS011;23239;51.504;7.456;2023-07-29T00:23:00;3.4;;;3.0;;
37365;SDS011;23239;51.504;7.456;2023-07-29T00:24:00;3.4;;;3.0;;
37365;SDS011;23239;51.504;7.456;2023-07-29T00:25:00;3.4;;;3.0;;
37365;SDS011;23239;51.504;7.456;2023-07-29T00:26:00;3.4;;;3.0;;
37365;SDS011;23239;51.504;7.456;2023-07-29T00:27:00;3.0;;;2.4;;
37365;SDS011;23239;51.504;7.456;2023-07-29T00:28:00;3.0;;;2.4;;
37365;SDS011;23239;51.504;7.456;2023-07-29T00:29:00;3.0;;;2.4;;
37365;SDS011;23239;51.504;7.456;2023-07-29T00:30:00;3.0;;;2.4;;
37365;SDS011;23239;51.504;7.456;2023-07-29T00:31:01;3.0;;;2.4;;
37365;SDS011;23239;51.504;7.456;2023-07-29T00:32:00;2.5;;;2.3;;
37365;SDS011;23239;51.504;7.456;2023-07-29T00:33:00;2.5;;;2.3;;
37365;SDS011;23239;51.504;7.456;2023-07-29T00:34:00;2.5;;;2.3;;
37365;SDS011;23239;51.504;7.456;2023-07-29T00:35:00;2.5;;;2.3;;
37365;SDS011;23239;51.504;7.456;2023-07-29T00:36:00;2.5;;;2.3;;
37365;SDS011;23239;51.504;7.456;2023-07-29T00:37:00;2.9;;;2.6;;
37365;SDS011;23239;51.504;7.456;2023-07-29T00:38:00;2.9;;;2.6;;
37365;SDS011;23239;51.504;7.456;2023-07-29T00:39:00;2.9;;;2.6;;
37365;SDS011;23239;51.504;7.456;2023-07-29T00:40:00;2.9;;;2.6;;
37365;SDS011;23239;51.504;7.456;2023-07-29T00:41:00;2.9;;;2.6;;
37365;SDS011;23239;51.504;7.456;2023-07-29T00:42:00;3.7;;;2.7;;
37365;SDS011;23239;51.504;7.456;2023-07-29T00:43:00;3.7;;;2.7;;
37365;SDS011;23239;51.504;7.456;2023-07-29T00:44:00;3.7;;;2.7;;
37365;SDS011;23239;51.504;7.456;2023-07-29T00:45:00;3.7;;;2.7;;
37365;SDS011;23239;51.504;7.456;2023-07-29T00:46:00;3.7;;;2.7;;
37365;SDS011;23239;51.504;7.456;2023-07-29T00:47:00;2.6;;;2.4;;
37365;SDS011;23239;51.504;7.456;2023-07-29T00:48:00;2.6;;;2.4;;
37365;SDS011;23239;51.504;7.456;2023-07-29T00:49:00;2.6;;;2.4;;
37365;SDS011;23239;51.504;7.456;2023-07-29T00:50:00;2.6;;;2.4;;
37365;SDS011;23239;51.504;7.456;2023-07-29T00:51:00;2.6;;;2.4;;
37365;SDS011;23239;51.504;7.456;2023-07-29T00:52:00;3.0;;;2.7;;
37365;SDS011;23239;51.504;7.456;2023-07-29T00:53:00;3.0;;;2.7;;
37365;SDS011;23239;51.504;7.456;2023-07-29T00:54:00;3.0;;;2.7;;
37365;SDS011;23239;51.504;7.456;2023-07-29T00:55:00;3.0;;;2.7;;
37365;SDS011;23239;51.504;7.456;2023-07-29T00:56:00;3.0;;;2.7;;
37365;SDS011;23239;51.504;7.456;2023-07-29T00:57:00;3.2;;;2.9;;
37365;SDS011;23239;51.504;7.456;2023-07-29T00:58:00;3.2;;;2.9;;
37365;SDS011;23239;51.504;7.456;2023-07-29T00:59:00;3.2;;;2.9;;
37365;SDS011;23239;51.504;7.456;2023-07-29T01:00:00;3.2;;;2.9;;
37365;SDS011;23239;51.504;7.456;2023-07-29T01:01:00;3.2;;;2.9;;
37365;SDS011;23239;51.504;7.456;2023-07-29T01:02:00;3.2;;;2.9;;
37365;SDS011;23239;51.504;7.456;2023-07-29T01:03:00;3.2;;;2.9;;
37365;SDS011;23239;51.504;7.456;2023-07-29T01:04:00;3.2;;;2.9;;
37365;SDS011;23239;51.504;7.456;2023-07-29T01:05:00;3.2;;;2.9;;
37365;SDS011;23239;51.504;7.456;2023-07-29T01:06:04;3.2;;;2.9;;
37365;SDS011;23239;51.504;7.456;2023-07-29T01:07:03;3.3;;;3.0;;
37365;SDS011;23239;51.504;7.456;2023-07-29T01:08:02;3.3;;;3.0;;
37365;SDS011;23239;51.504;7.456;2023-07-29T01:09:01;3.3;;;3.0;;
37365;SDS011;23239;51.504;7.456;2023-07-29T01:10:01;3.3;;;3.0;;
37365;SDS011;23239;51.504;7.456;2023-07-29T01:11:01;3.3;;;3.0;;
37365;SDS011;23239;51.504;7.456;2023-07-29T01:12:01;3.2;;;2.8;;
37365;SDS011;23239;51.504;7.456;2023-07-29T01:13:01;3.2;;;2.8;;
37365;SDS011;23239;51.504;7.456;2023-07-29T01:14:02;3.2;;;2.8;;
37365;SDS011;23239;51.504;7.456;2023-07-29T01:15:01;3.2;;;2.8;;
37365;SDS011;23239;51.504;7.456;2023-07-29T01:16:00;3.2;;;2.8;;
37365;SDS011;23239;51.504;7.456;2023-07-29T01:17:00;3.6;;;2.8;;
37365;SDS011;23239;51.504;7.456;2023-07-29T01:18:02;3.6;;;2.8;;
37365;SDS011;23239;51.504;7.456;2023-07-29T01:19:01;3.6;;;2.8;;
37365;SDS011;23239;51.504;7.456;2023-07-29T01:20:01;3.6;;;2.8;;
37365;SDS011;23239;51.504;7.456;2023-07-29T01:21:02;3.6;;;2.8;;
37365;SDS011;23239;51.504;7.456;2023-07-29T01:22:00;3.3;;;2.9;;
37365;SDS011;23239;51.504;7.456;2023-07-29T01:23:00;3.3;;;2.9;;
37365;SDS011;23239;51.504;7.456;2023-07-29T01:24:00;3.3;;;2.9;;
37365;SDS011;23239;51.504;7.456;2023-07-29T01:25:00;3.3;;;2.9;;
37365;SDS011;23239;51.504;7.456;2023-07-29T01:26:00;3.3;;;2.9;;
37365;SDS011;23239;51.504;7.456;2023-07-29T01:27:00;2.5;;;2.3;;
37365;SDS011;23239;51.504;7.456;2023-07-29T01:28:00;2.5;;;2.3;;
37365;SDS011;23239;51.504;7.456;2023-07-29T01:29:00;2.5;;;2.3;;
37365;SDS011;23239;51.504;7.456;2023-07-29T01:30:00;2.5;;;2.3;;
37365;SDS011;23239;51.504;7.456;2023-07-29T01:31:01;2.5;;;2.3;;
37365;SDS011;23239;51.504;7.456;2023-07-29T01:32:01;2.9;;;2.7;;
37365;SDS011;23239;51.504;7.456;2023-07-29T01:33:02;2.9;;;2.7;;
37365;SDS011;23239;51.504;7.456;2023-07-29T01:34:02;2.9;;;2.7;;
37365;SDS011;23239;51.504;7.456;2023-07-29T01:35:02;2.9;;;2.7;;
37365;SDS011;23239;51.504;7.456;2023-07-29T01:36:01;2.9;;;2.7;;
37365;SDS011;23239;51.504;7.456;2023-07-29T01:37:00;3.2;;;2.5;;
37365;SDS011;23239;51.504;7.456;2023-07-29T01:38:01;3.2;;;2.5;;
37365;SDS011;23239;51.504;7.456;2023-07-29T01:39:00;3.2;;;2.5;;
37365;SDS011;23239;51.504;7.456;2023-07-29T01:40:00;3.2;;;2.5;;
37365;SDS011;23239;51.504;7.456;2023-07-29T01:41:00;3.2;;;2.5;;
37365;SDS011;23239;51.504;7.456;2023-07-29T01:42:00;3.3;;;2.4;;
37365;SDS011;23239;51.504;7.456;2023-07-29T01:43:00;3.3;;;2.4;;
37365;SDS011;23239;51.504;7.456;2023-07-29T01:44:00;3.3;;;2.4;;
37365;SDS011;23239;51.504;7.456;2023-07-29T01:45:00;3.3;;;2.4;;
37365;SDS011;23239;51.504;7.456;2023-07-29T01:46:00;3.3;;;2.4;;
37365;SDS011;23239;51.504;7.456;2023-07-29T01:47:00;2.4;;;2.2;;
37365;SDS011;23239;51.504;7.456;2023-07-29T01:48:00;2.4;;;2.2;;
37365;SDS011;23239;51.504;7.456;2023-07-29T01:49:00;2.4;;;2.2;;
37365;SDS011;23239;51.504;7.456;2023-07-29T01:50:00;2.4;;;2.2;;
37365;SDS011;23239;51.504;7.456;2023-07-29T01:51:00;2.4;;;2.2;;
37365;SDS011;23239;51.504;7.456;2023-07-29T01:52:00;2.3;;;2.1;;
37365;SDS011;23239;51.504;7.456;2023-07-29T01:53:00;2.3;;;2.1;;
37365;SDS011;23239;51.504;7.456;2023-07-29T01:54:00;2.3;;;2.1;;
37365;SDS011;23239;51.504;7.456;2023-07-29T01:55:00;2.3;;;2.1;;
37365;SDS011;23239;51.504;7.456;2023-07-29T01:56:01;2.3;;;2.1;;
37365;SDS011;23239;51.504;7.456;2023-07-29T01:57:00;3.0;;;2.3;;
37365;SDS011;23239;51.504;7.456;2023-07-29T01:58:00;3.0;;;2.3;;
37365;SDS011;23239;51.504;7.456;2023-07-29T01:59:00;3.0;;;2.3;;
37365;SDS011;23239;51.504;7.456;2023-07-29T02:00:00;3.0;;;2.3;;
37365;SDS011;23239;51.504;7.456;2023-07-29T02:01:00;3.0;;;2.3;;
37365;SDS011;23239;51.504;7.456;2023-07-29T02:02:00;3.3;;;2.2;;
37365;SDS011;23239;51.504;7.456;2023-07-29T02:03:00;3.3;;;2.2;;
37365;SDS011;23239;51.504;7.456;2023-07-29T02:04:00;3.3;;;2.2;;
37365;SDS011;23239;51.504;7.456;2023-07-29T02:05:00;3.3;;;2.2;;
37365;SDS011;23239;51.504;7.456;2023-07-29T02:06:00;3.3;;;2.2;;
37365;SDS011;23239;51.504;7.456;2023-07-29T02:07:00;4.2;;;2.4;;
37365;SDS011;23239;51.504;7.456;2023-07-29T02:08:00;4.2;;;2.4;;
37365;SDS011;23239;51.504;7.456;2023-07-29T02:09:00;4.2;;;2.4;;
37365;SDS011;23239;51.504;7.456;2023-07-29T02:10:00;4.2;;;2.4;;
37365;SDS011;23239;51.504;7.456;2023-07-29T02:11:00;4.2;;;2.4;;
37365;SDS011;23239;51.504;7.456;2023-07-29T02:12:00;3.7;;;2.2;;
37365;SDS011;23239;51.504;7.456;2023-07-29T02:13:00;3.7;;;2.2;;
37365;SDS011;23239;51.504;7.456;2023-07-29T02:14:00;3.7;;;2.2;;
37365;SDS011;23239;51.504;7.456;2023-07-29T02:15:00;3.7;;;2.2;;
37365;SDS011;23239;51.504;7.456;2023-07-29T02:16:00;3.7;;;2.2;;
37365;SDS011;23239;51.504;7.456;2023-07-29T02:17:00;2.3;;;1.8;;
37365;SDS011;23239;51.504;7.456;2023-07-29T02:18:00;2.3;;;1.8;;
37365;SDS011;23239;51.504;7.456;2023-07-29T02:19:00;2.3;;;1.8;;
37365;SDS011;23239;51.504;7.456;2023-07-29T02:20:00;2.3;;;1.8;;
37365;SDS011;23239;51.504;7.456;2023-07-29T02:21:00;2.3;;;1.8;;
37365;SDS011;23239;51.504;7.456;2023-07-29T02:22:00;1.9;;;1.8;;
37365;SDS011;23239;51.504;7.456;2023-07-29T02:23:00;1.9;;;1.8;;
37365;SDS011;23239;51.504;7.456;2023-07-29T02:24:00;1.9;;;1.8;;
37365;SDS011;23239;51.504;7.456;2023-07-29T02:25:00;1.9;;;1.8;;
37365;SDS011;23239;51.504;7.456;2023-07-29T02:26:00;1.9;;;1.8;;
37365;SDS011;23239;51.504;7.456;2023-07-29T02:27:00;3.8;;;1.9;;
37365;SDS011;23239;51.504;7.456;2023-07-29T02:28:00;3.8;;;1.9;;
37365;SDS011;23239;51.504;7.456;2023-07-29T02:29:00;3.8;;;1.9;;
37365;SDS011;23239;51.504;7.456;2023-07-29T02:30:00;3.8;;;1.9;;
37365;SDS011;23239;51.504;7.456;2023-07-29T02:31:09;3.8;;;1.9;;
37365;SDS011;23239;51.504;7.456;2023-07-29T02:32:00;2.2;;;1.9;;
37365;SDS011;23239;51.504;7.456;2023-07-29T02:33:00;2.2;;;1.9;;
37365;SDS011;23239;51.504;7.456;2023-07-29T02:34:00;2.2;;;1.9;;
37365;SDS011;23239;51.504;7.456;2023-07-29T02:35:00;2.2;;;1.9;;
37365;SDS011;23239;51.504;7.456;2023-07-29T02:36:00;2.2;;;1.9;;
37365;SDS011;23239;51.504;7.456;2023-07-29T02:37:00;2.3;;;1.6;;
37365;SDS011;23239;51.504;7.456;2023-07-29T02:38:00;2.3;;;1.6;;
37365;SDS011;23239;51.504;7.456;2023-07-29T02:39:00;2.3;;;1.6;;
37365;SDS011;23239;51.504;7.456;2023-07-29T02:40:00;2.3;;;1.6;;
37365;SDS011;23239;51.504;7.456;2023-07-29T02:41:00;2.3;;;1.6;;
37365;SDS011;23239;51.504;7.456;2023-07-29T02:42:00;2.0;;;1.7;;
37365;SDS011;23239;51.504;7.456;2023-07-29T02:43:00;2.0;;;1.7;;
37365;SDS011;23239;51.504;7.456;2023-07-29T02:44:01;2.0;;;1.7;;
37365;SDS011;23239;51.504;7.456;2023-07-29T02:45:00;2.0;;;1.7;;
37365;SDS011;23239;51.504;7.456;2023-07-29T02:46:00;2.0;;;1.7;;
37365;SDS011;23239;51.504;7.456;2023-07-29T02:47:00;2.0;;;1.5;;
37365;SDS011;23239;51.504;7.456;2023-07-29T02:48:00;2.0;;;1.5;;
37365;SDS011;23239;51.504;7.456;2023-07-29T02:49:01;2.0;;;1.5;;
37365;SDS011;23239;51.504;7.456;2023-07-29T02:50:00;2.0;;;1.5;;
37365;SDS011;23239;51.504;7.456;2023-07-29T02:51:00;2.0;;;1.5;;
37365;SDS011;23239;51.504;7.456;2023-07-29T02:52:00;2.4;;;1.4;;
37365;SDS011;23239;51.504;7.456;2023-07-29T02:53:00;2.4;;;1.4;;
37365;SDS011;23239;51.504;7.456;2023-07-29T02:54:00;2.4;;;1.4;;
37365;SDS011;23239;51.504;7.456;2023-07-29T02:55:00;2.4;;;1.4;;
37365;SDS011;23239;51.504;7.456;2023-07-29T02:56:00;2.4;;;1.4;;
37365;SDS011;23239;51.504;7.456;2023-07-29T02:57:00;1.9;;;1.5;;
37365;SDS011;23239;51.504;7.456;2023-07-29T02:58:00;1.9;;;1.5;;
37365;SDS011;23239;51.504;7.456;2023-07-29T02:59:00;1.9;;;1.5;;
37365;SDS011;23239;51.504;7.456;2023-07-29T03:00:00;1.9;;;1.5;;
37365;SDS011;23239;51.504;7.456;2023-07-29T03:01:00;1.9;;;1.5;;
37365;SDS011;23239;51.504;7.456;2023-07-29T03:02:00;2.1;;;1.6;;
37365;SDS011;23239;51.504;7.456;2023-07-29T03:03:00;2.1;;;1.6;;
37365;SDS011;23239;51.504;7.456;2023-07-29T03:04:00;2.1;;;1.6;;
37365;SDS011;23239;51.504;7.456;2023-07-29T03:05:00;2.1;;;1.6;;
37365;SDS011;23239;51.504;7.456;2023-07-29T03:06:01;2.1;;;1.6;;
37365;SDS011;23239;51.504;7.456;2023-07-29T03:07:00;2.1;;;1.5;;
37365;SDS011;23239;51.504;7.456;2023-07-29T03:08:00;2.1;;;1.5;;
37365;SDS011;23239;51.504;7.456;2023-07-29T03:09:00;2.1;;;1.5;;
37365;SDS011;23239;51.504;7.456;2023-07-29T03:10:00;2.1;;;1.5;;
37365;SDS011;23239;51.504;7.456;2023-07-29T03:11:04;2.1;;;1.5;;
37365;SDS011;23239;51.504;7.456;2023-07-29T03:12:00;1.8;;;1.5;;
37365;SDS011;23239;51.504;7.456;2023-07-29T03:13:00;1.8;;;1.5;;
37365;SDS011;23239;51.504;7.456;2023-07-29T03:14:00;1.8;;;1.5;;
37365;SDS011;23239;51.504;7.456;2023-07-29T03:15:00;1.8;;;1.5;;
37365;SDS011;23239;51.504;7.456;2023-07-29T03:16:04;1.8;;;1.5;;
37365;SDS011;23239;51.504;7.456;2023-07-29T03:17:01;1.8;;;1.7;;
37365;SDS011;23239;51.504;7.456;2023-07-29T03:18:00;1.8;;;1.7;;
37365;SDS011;23239;51.504;7.456;2023-07-29T03:19:00;1.8;;;1.7;;
37365;SDS011;23239;51.504;7.456;2023-07-29T03:20:00;1.8;;;1.7;;
37365;SDS011;23239;51.504;7.456;2023-07-29T03:21:00;1.8;;;1.7;;
37365;SDS011;23239;51.504;7.456;2023-07-29T03:22:00;4.3;;;1.9;;
37365;SDS011;23239;51.504;7.456;2023-07-29T03:23:00;4.3;;;1.9;;
37365;SDS011;23239;51.504;7.456;2023-07-29T03:24:00;4.3;;;1.9;;
37365;SDS011;23239;51.504;7.456;2023-07-29T03:25:00;4.3;;;1.9;;
37365;SDS011;23239;51.504;7.456;2023-07-29T03:26:00;4.3;;;1.9;;
37365;SDS011;23239;51.504;7.456;2023-07-29T03:27:00;2.3;;;1.7;;
37365;SDS011;23239;51.504;7.456;2023-07-29T03:28:00;2.3;;;1.7;;
37365;SDS011;23239;51.504;7.456;2023-07-29T03:29:00;2.3;;;1.7;;
37365;SDS011;23239;51.504;7.456;2023-07-29T03:30:00;2.3;;;1.7;;
37365;SDS011;23239;51.504;7.456;2023-07-29T03:31:00;2.3;;;1.7;;
37365;SDS011;23239;51.504;7.456;2023-07-29T03:32:00;6.3;;;2.0;;
37365;SDS011;23239;51.504;7.456;2023-07-29T03:33:00;6.3;;;2.0;;
37365;SDS011;23239;51.504;7.456;2023-07-29T03:34:00;6.3;;;2.0;;
37365;SDS011;23239;51.504;7.456;2023-07-29T03:35:00;6.3;;;2.0;;
37365;SDS011;23239;51.504;7.456;2023-07-29T03:36:00;6.3;;;2.0;;
37365;SDS011;23239;51.504;7.456;2023-07-29T03:37:00;3.8;;;2.2;;
37365;SDS011;23239;51.504;7.456;2023-07-29T03:38:00;3.8;;;2.2;;
37365;SDS011;23239;51.504;7.456;2023-07-29T03:39:00;3.8;;;2.2;;
37365;SDS011;23239;51.504;7.456;2023-07-29T03:40:00;3.8;;;2.2;;
37365;SDS011;23239;51.504;7.456;2023-07-29T03:41:00;3.8;;;2.2;;
37365;SDS011;23239;51.504;7.456;2023-07-29T03:42:00;2.7;;;2.0;;
37365;SDS011;23239;51.504;7.456;2023-07-29T03:43:00;2.7;;;2.0;;
37365;SDS011;23239;51.504;7.456;2023-07-29T03:44:00;2.7;;;2.0;;
37365;SDS011;23239;51.504;7.456;2023-07-29T03:45:00;2.7;;;2.0;;
37365;SDS011;23239;51.504;7.456;2023-07-29T03:46:00;2.7;;;2.0;;
37365;SDS011;23239;51.504;7.456;2023-07-29T03:47:00;3.8;;;2.4;;
37365;SDS011;23239;51.504;7.456;2023-07-29T03:48:00;3.8;;;2.4;;
37365;SDS011;23239;51.504;7.456;2023-07-29T03:49:00;3.8;;;2.4;;
37365;SDS011;23239;51.504;7.456;2023-07-29T03:50:00;3.8;;;2.4;;
37365;SDS011;23239;51.504;7.456;2023-07-29T03:51:00;3.8;;;2.4;;
37365;SDS011;23239;51.504;7.456;2023-07-29T03:52:00;2.5;;;2.3;;
37365;SDS011;23239;51.504;7.456;2023-07-29T03:53:00;2.5;;;2.3;;
37365;SDS011;23239;51.504;7.456;2023-07-29T03:54:00;2.5;;;2.3;;
37365;SDS011;23239;51.504;7.456;2023-07-29T03:55:00;2.5;;;2.3;;
37365;SDS011;23239;51.504;7.456;2023-07-29T03:56:00;2.5;;;2.3;;
37365;SDS011;23239;51.504;7.456;2023-07-29T03:57:00;4.3;;;2.3;;
37365;SDS011;23239;51.504;7.456;2023-07-29T03:58:00;4.3;;;2.3;;
37365;SDS011;23239;51.504;7.456;2023-07-29T03:59:02;4.3;;;2.3;;
37365;SDS011;23239;51.504;7.456;2023-07-29T04:00:00;4.3;;;2.3;;
37365;SDS011;23239;51.504;7.456;2023-07-29T04:01:00;4.3;;;2.3;;
37365;SDS011;23239;51.504;7.456;2023-07-29T04:02:00;2.6;;;2.4;;
37365;SDS011;23239;51.504;7.456;2023-07-29T04:03:00;2.6;;;2.4;;
37365;SDS011;23239;51.504;7.456;2023-07-29T04:04:00;2.6;;;2.4;;
37365;SDS011;23239;51.504;7.456;2023-07-29T04:05:00;2.6;;;2.4;;
37365;SDS011;23239;51.504;7.456;2023-07-29T04:06:00;2.6;;;2.4;;
37365;SDS011;23239;51.504;7.456;2023-07-29T04:07:00;3.6;;;2.4;;
37365;SDS011;23239;51.504;7.456;2023-07-29T04:08:00;3.6;;;2.4;;
37365;SDS011;23239;51.504;7.456;2023-07-29T04:09:00;3.6;;;2.4;;
37365;SDS011;23239;51.504;7.456;2023-07-29T04:10:00;3.6;;;2.4;;
37365;SDS011;23239;51.504;7.456;2023-07-29T04:11:00;3.6;;;2.4;;
37365;SDS011;23239;51.504;7.456;2023-07-29T04:12:00;2.9;;;2.6;;
37365;SDS011;23239;51.504;7.456;2023-07-29T04:13:00;2.9;;;2.6;;
37365;SDS011;23239;51.504;7.456;2023-07-29T04:14:00;2.9;;;2.6;;
37365;SDS011;23239;51.504;7.456;2023-07-29T04:15:00;2.9;;;2.6;;
37365;SDS011;23239;51.504;7.456;2023-07-29T04:16:00;2.9;;;2.6;;
37365;SDS011;23239;51.504;7.456;2023-07-29T04:17:00;5.6;;;2.9;;
37365;SDS011;23239;51.504;7.456;2023-07-29T04:18:00;5.6;;;2.9;;
37365;SDS011;23239;51.504;7.456;2023-07-29T04:19:00;5.6;;;2.9;;
37365;SDS011;23239;51.504;7.456;2023-07-29T04:20:00;5.6;;;2.9;;
37365;SDS011;23239;51.504;7.456;2023-07-29T04:21:00;5.6;;;2.9;;
37365;SDS011;23239;51.504;7.456;2023-07-29T04:22:00;2.8;;;2.5;;
37365;SDS011;23239;51.504;7.456;2023-07-29T04:23:00;2.8;;;2.5;;
37365;SDS011;23239;51.504;7.456;2023-07-29T04:24:00;2.8;;;2.5;;
37365;SDS011;23239;51.504;7.456;2023-07-29T04:25:00;2.8;;;2.5;;
37365;SDS011;23239;51.504;7.456;2023-07-29T04:26:00;2.8;;;2.5;;
37365;SDS011;23239;51.504;7.456;2023-07-29T04:27:00;3.4;;;2.6;;
37365;SDS011;23239;51.504;7.456;2023-07-29T04:28:00;3.4;;;2.6;;
37365;SDS011;23239;51.504;7.456;2023-07-29T04:29:00;3.4;;;2.6;;
37365;SDS011;23239;51.504;7.456;2023-07-29T04:30:00;3.4;;;2.6;;
37365;SDS011;23239;51.504;7.456;2023-07-29T04:31:00;3.4;;;2.6;;
37365;SDS011;23239;51.504;7.456;2023-07-29T04:32:00;3.4;;;2.7;;
37365;SDS011;23239;51.504;7.456;2023-07-29T04:33:00;3.4;;;2.7;;
37365;SDS011;23239;51.504;7.456;2023-07-29T04:34:00;3.4;;;2.7;;
37365;SDS011;23239;51.504;7.456;2023-07-29T04:35:00;3.4;;;2.7;;
37365;SDS011;23239;51.504;7.456;2023-07-29T04:36:00;3.4;;;2.7;;
37365;SDS011;23239;51.504;7.456;2023-07-29T04:37:00;4.2;;;2.6;;
37365;SDS011;23239;51.504;7.456;2023-07-29T04:38:00;4.2;;;2.6;;
37365;SDS011;23239;51.504;7.456;2023-07-29T04:39:00;4.2;;;2.6;;
37365;SDS011;23239;51.504;7.456;2023-07-29T04:40:00;4.2;;;2.6;;
37365;SDS011;23239;51.504;7.456;2023-07-29T04:41:00;4.2;;;2.6;;
37365;SDS011;23239;51.504;7.456;2023-07-29T04:42:00;3.8;;;2.6;;
37365;SDS011;23239;51.504;7.456;2023-07-29T04:43:00;3.8;;;2.6;;
37365;SDS011;23239;51.504;7.456;2023-07-29T04:44:00;3.8;;;2.6;;
37365;SDS011;23239;51.504;7.456;2023-07-29T04:45:00;3.8;;;2.6;;
37365;SDS011;23239;51.504;7.456;2023-07-29T04:46:00;3.8;;;2.6;;
37365;SDS011;23239;51.504;7.456;2023-07-29T04:47:00;2.8;;;2.4;;
37365;SDS011;23239;51.504;7.456;2023-07-29T04:48:00;2.8;;;2.4;;
37365;SDS011;23239;51.504;7.456;2023-07-29T04:49:00;2.8;;;2.4;;
37365;SDS011;23239;51.504;7.456;2023-07-29T04:50:00;2.8;;;2.4;;
37365;SDS011;23239;51.504;7.456;2023-07-29T04:51:00;2.8;;;2.4;;
37365;SDS011;23239;51.504;7.456;2023-07-29T04:52:00;2.7;;;2.5;;
37365;SDS011;23239;51.504;7.456;2023-07-29T04:53:00;2.7;;;2.5;;
37365;SDS011;23239;51.504;7.456;2023-07-29T04:54:00;2.7;;;2.5;;
37365;SDS011;23239;51.504;7.456;2023-07-29T04:55:00;2.7;;;2.5;;
37365;SDS011;23239;51.504;7.456;2023-07-29T04:56:00;2.7;;;2.5;;
37365;SDS011;23239;51.504;7.456;2023-07-29T04:57:00;2.7;;;2.2;;
37365;SDS011;23239;51.504;7.456;2023-07-29T04:58:00;2.7;;;2.2;;
37365;SDS011;23239;51.504;7.456;2023-07-29T04:59:00;2.7;;;2.2;;
37365;SDS011;23239;51.504;7.456;2023-07-29T05:00:00;2.7;;;2.2;;
37365;SDS011;23239;51.504;7.456;2023-07-29T05:01:00;2.7;;;2.2;;
37365;SDS011;23239;51.504;7.456;2023-07-29T05:02:00;4.3;;;2.6;;
37365;SDS011;23239;51.504;7.456;2023-07-29T05:03:00;4.3;;;2.6;;
37365;SDS011;23239;51.504;7.456;2023-07-29T05:04:00;4.3;;;2.6;;
37365;SDS011;23239;51.504;7.456;2023-07-29T05:05:00;4.3;;;2.6;;
37365;SDS011;23239;51.504;7.456;2023-07-29T05:06:00;4.3;;;2.6;;
37365;SDS011;23239;51.504;7.456;2023-07-29T05:07:00;3.8;;;3.0;;
37365;SDS011;23239;51.504;7.456;2023-07-29T05:08:01;3.8;;;3.0;;
37365;SDS011;23239;51.504;7.456;2023-07-29T05:10:00;3.8;;;3.0;;
37365;SDS011;23239;51.504;7.456;2023-07-29T05:11:00;3.8;;;3.0;;
37365;SDS011;23239;51.504;7.456;2023-07-29T05:12:00;3.5;;;3.2;;
37365;SDS011;23239;51.504;7.456;2023-07-29T05:13:00;3.5;;;3.2;;
37365;SDS011;23239;51.504;7.456;2023-07-29T05:14:00;3.5;;;3.2;;
37365;SDS011;23239;51.504;7.456;2023-07-29T05:15:00;3.5;;;3.2;;
37365;SDS011;23239;51.504;7.456;2023-07-29T05:16:00;3.5;;;3.2;;
37365;SDS011;23239;51.504;7.456;2023-07-29T05:17:00;5.2;;;3.4;;
37365;SDS011;23239;51.504;7.456;2023-07-29T05:18:00;5.2;;;3.4;;
37365;SDS011;23239;51.504;7.456;2023-07-29T05:19:00;5.2;;;3.4;;
37365;SDS011;23239;51.504;7.456;2023-07-29T05:20:00;5.2;;;3.4;;
37365;SDS011;23239;51.504;7.456;2023-07-29T05:21:00;5.2;;;3.4;;
37365;SDS011;23239;51.504;7.456;2023-07-29T05:22:00;7.4;;;4.8;;
37365;SDS011;23239;51.504;7.456;2023-07-29T05:23:00;7.4;;;4.8;;
37365;SDS011;23239;51.504;7.456;2023-07-29T05:24:00;7.4;;;4.8;;
37365;SDS011;23239;51.504;7.456;2023-07-29T05:25:00;7.4;;;4.8;;
37365;SDS011;23239;51.504;7.456;2023-07-29T05:26:00;7.4;;;4.8;;
37365;SDS011;23239;51.504;7.456;2023-07-29T05:27:00;6.7;;;4.6;;
37365;SDS011;23239;51.504;7.456;2023-07-29T05:28:00;6.7;;;4.6;;
37365;SDS011;23239;51.504;7.456;2023-07-29T05:29:00;6.7;;;4.6;;
37365;SDS011;23239;51.504;7.456;2023-07-29T05:30:00;6.7;;;4.6;;
37365;SDS011;23239;51.504;7.456;2023-07-29T05:31:00;6.7;;;4.6;;
37365;SDS011;23239;51.504;7.456;2023-07-29T05:32:00;6.9;;;5.4;;
37365;SDS011;23239;51.504;7.456;2023-07-29T05:33:00;6.9;;;5.4;;
37365;SDS011;23239;51.504;7.456;2023-07-29T05:34:00;6.9;;;5.4;;
37365;SDS011;23239;51.504;7.456;2023-07-29T05:35:00;6.9;;;5.4;;
37365;SDS011;23239;51.504;7.456;2023-07-29T05:36:00;6.9;;;5.4;;
37365;SDS011;23239;51.504;7.456;2023-07-29T05:37:00;5.2;;;4.7;;
37365;SDS011;23239;51.504;7.456;2023-07-29T05:38:00;5.2;;;4.7;;
37365;SDS011;23239;51.504;7.456;2023-07-29T05:39:00;5.2;;;4.7;;
37365;SDS011;23239;51.504;7.456;2023-07-29T05:40:00;5.2;;;4.7;;
37365;SDS011;23239;51.504;7.456;2023-07-29T05:41:00;5.2;;;4.7;;
37365;SDS011;23239;51.504;7.456;2023-07-29T05:42:00;6.6;;;5.5;;
37365;SDS011;23239;51.504;7.456;2023-07-29T05:43:00;6.6;;;5.5;;
37365;SDS011;23239;51.504;7.456;2023-07-29T05:44:00;6.6;;;5.5;;
37365;SDS011;23239;51.504;7.456;2023-07-29T05:45:00;6.6;;;5.5;;
37365;SDS011;23239;51.504;7.456;2023-07-29T05:46:00;6.6;;;5.5;;
37365;SDS011;23239;51.504;7.456;2023-07-29T05:47:00;6.4;;;5.4;;
37365;SDS011;23239;51.504;7.456;2023-07-29T05:48:00;6.4;;;5.4;;
37365;SDS011;23239;51.504;7.456;2023-07-29T05:49:00;6.4;;;5.4;;
37365;SDS011;23239;51.504;7.456;2023-07-29T05:50:00;6.4;;;5.4;;
37365;SDS011;23239;51.504;7.456;2023-07-29T05:51:00;6.4;;;5.4;;
37365;SDS011;23239;51.504;7.456;2023-07-29T05:52:00;9.5;;;6.9;;
37365;SDS011;23239;51.504;7.456;2023-07-29T05:53:00;9.5;;;6.9;;
37365;SDS011;23239;51.504;7.456;2023-07-29T05:54:00;9.5;;;6.9;;
37365;SDS011;23239;51.504;7.456;2023-07-29T05:55:00;9.5;;;6.9;;
37365;SDS011;23239;51.504;7.456;2023-07-29T05:56:00;9.5;;;6.9;;
37365;SDS011;23239;51.504;7.456;2023-07-29T05:57:00;8.2;;;6.1;;
37365;SDS011;23239;51.504;7.456;2023-07-29T05:58:00;8.2;;;6.1;;
37365;SDS011;23239;51.504;7.456;2023-07-29T05:59:00;8.2;;;6.1;;
37365;SDS011;23239;51.504;7.456;2023-07-29T06:00:00;8.2;;;6.1;;
37365;SDS011;23239;51.504;7.456;2023-07-29T06:01:00;8.2;;;6.1;;
37365;SDS011;23239;51.504;7.456;2023-07-29T06:02:00;6.8;;;6.2;;
37365;SDS011;23239;51.504;7.456;2023-07-29T06:03:00;6.8;;;6.2;;
37365;SDS011;23239;51.504;7.456;2023-07-29T06:04:00;6.8;;;6.2;;
37365;SDS011;23239;51.504;7.456;2023-07-29T06:05:00;6.8;;;6.2;;
37365;SDS011;23239;51.504;7.456;2023-07-29T06:06:00;6.8;;;6.2;;
37365;SDS011;23239;51.504;7.456;2023-07-29T06:07:00;8.9;;;7.8;;
37365;SDS011;23239;51.504;7.456;2023-07-29T06:08:00;8.9;;;7.8;;
37365;SDS011;23239;51.504;7.456;2023-07-29T06:09:00;8.9;;;7.8;;
37365;SDS011;23239;51.504;7.456;2023-07-29T06:10:00;8.9;;;7.8;;
37365;SDS011;23239;51.504;7.456;2023-07-29T06:11:00;8.9;;;7.8;;
37365;SDS011;23239;51.504;7.456;2023-07-29T06:12:00;9.2;;;8.2;;
37365;SDS011;23239;51.504;7.456;2023-07-29T06:13:00;9.2;;;8.2;;